Latest Weather Observations for Coffs Harbour

IDN60801

Issued at 6:05 pm EST Wednesday 23 April 2014 (issued every 30 minutes, with the page automatically refreshed every 10 minutes)

About weather observations | Map of weather stations | Latest weather observations for NSW | Other Formats
Station Details ID: 059040 Name: COFFS HARBOUR MO Lat: -30.31 Lon: 153.12 Height: 5.0 m
Data from the previous 72 hours. | See also: Recent months at Coffs Harbour
Date/Time
EST
Temp
°C
App
Temp
°C
Dew
Point
Rel
Hum
%
Delta-T
°C
Wind Press
QNH
hPa
Press
MSL
hPa
Rain
since 9 am
mm
Dir
 
Spd
km/h
Gust
km/h
Spd
kts
Gust
kts
23/06:00pm 22.7 22.9 16.8 69 3.6 N 11 15 6 8 1015.6 1015.7 0.0
23/05:30pm 23.0 22.0 16.6 67 3.9 N 17 26 9 14 1015.4 - 0.0
23/05:00pm 23.2 21.9 17.2 69 3.7 NNE 20 26 11 14 1015.2 - 0.0
23/04:30pm 23.4 22.6 18.1 72 3.3 NNE 19 20 10 11 1015.3 - 0.0
23/04:00pm 23.6 21.1 18.0 71 3.5 NNE 28 35 15 19 1015.1 - 0.0
23/03:30pm 23.8 21.3 18.1 70 3.6 NNE 28 35 15 19 1014.9 - 0.0
23/03:00pm 24.3 22.1 17.9 67 4.0 NE 26 33 14 18 1014.8 1014.9 0.0
23/02:30pm 25.1 22.3 16.3 58 5.4 NNE 26 33 14 18 1014.8 - 0.0
23/02:00pm 26.3 25.0 17.3 57 5.6 NE 20 30 11 16 1014.8 - 0.0
23/01:30pm 25.9 25.1 17.2 58 5.4 NE 17 26 9 14 1014.9 - 0.0
23/01:00pm 26.7 26.4 17.3 56 5.9 NE 15 24 8 13 1015.4 - 0.0
23/12:30pm 26.7 27.0 17.1 55 6.0 E 11 15 6 8 1015.9 - 0.0
23/12:00pm 26.6 26.2 16.2 52 6.4 ENE 13 17 7 9 1016.3 1016.4 0.0
23/11:30am 27.0 26.9 16.9 54 6.3 SSE 13 15 7 8 1016.7 - 0.0
23/11:00am 25.0 24.3 16.3 58 5.3 SSE 15 19 8 10 1017.4 - 0.0
23/10:30am 24.7 24.1 16.7 61 4.9 SSE 15 17 8 9 1017.8 - 0.0
23/10:00am 25.9 26.5 15.9 54 6.1 SE 7 13 4 7 1018.0 - 0.0
23/09:30am 25.9 25.6 15.5 52 6.3 WNW 11 13 6 7 1018.2 - 0.0
23/09:00am 24.6 24.9 16.0 58 5.2 NNW 9 11 5 6 1018.5 1018.6 0.2
23/08:30am 23.7 24.5 16.3 63 4.5 N 7 11 4 6 1018.5 - 0.2
23/08:00am 21.1 21.2 15.4 70 3.4 N 9 11 5 6 1018.5 - 0.2
23/07:30am 20.1 19.6 15.0 72 3.0 NNE 11 13 6 7 1018.3 - 0.2
23/07:00am 17.2 16.6 15.7 91 0.9 N 13 17 7 9 1018.1 - 0.2
23/06:30am 16.4 16.5 15.4 94 0.6 N 9 11 5 6 1017.9 - 0.2
23/06:00am 16.2 16.2 15.2 94 0.6 N 9 13 5 7 1017.6 1017.7 0.2
23/05:30am 16.0 15.6 15.3 96 0.4 N 11 13 6 7 1017.3 - 0.2
23/05:00am 16.5 16.2 15.5 94 0.6 NNE 11 15 6 8 1017.2 - 0.2
23/04:30am 16.4 16.1 15.4 94 0.6 N 11 13 6 7 1017.0 - 0.2
23/04:00am 16.3 16.3 15.1 93 0.7 N 9 11 5 6 1016.7 - 0.2
23/03:30am 16.4 16.8 15.2 93 0.7 NW 7 13 4 7 1016.7 - 0.2
23/03:00am 17.0 17.2 15.8 93 0.7 N 9 11 5 6 1016.7 1016.8 0.2
23/02:30am 17.4 18.6 16.0 91 0.8 N 4 9 2 5 1016.7 - 0.2
23/02:00am 17.5 17.0 16.0 91 0.9 N 13 15 7 8 1016.9 - 0.2
23/01:30am 17.8 17.0 16.1 90 1.0 N 15 15 8 8 1017.3 - 0.2
23/01:00am 17.7 17.6 16.0 90 1.0 N 11 13 6 7 1017.5 - 0.2
23/12:30am 18.3 17.9 16.3 88 1.2 N 13 15 7 8 1017.6 - 0.2
23/12:00am 18.4 18.7 15.9 85 1.5 NE 9 11 5 6 1017.6 1017.7 0.2
 
Date/Time
EST
Temp
°C
App
Temp
°C
Dew
Point
Rel
Hum
%
Delta-T
°C
Wind Press
QNH
hPa
Press
MSL
hPa
Rain
since 9 am
mm
Dir
 
Spd
km/h
Gust
km/h
Spd
kts
Gust
kts
22/11:30pm 19.6 19.9 16.1 80 2.1 NE 9 11 5 6 1017.7 - 0.2
22/11:00pm 20.0 19.6 16.3 79 2.2 NNW 13 17 7 9 1017.9 - 0.2
22/10:30pm 21.7 22.0 15.9 69 3.5 NW 9 11 5 6 1018.2 - 0.2
22/10:00pm 22.0 20.2 15.5 66 3.9 N 19 24 10 13 1018.1 - 0.2
22/09:30pm 21.2 20.8 16.2 73 3.0 N 13 19 7 10 1018.3 - 0.2
22/09:00pm 20.8 21.4 16.7 77 2.5 N 9 9 5 5 1018.3 1018.4 0.2
22/08:30pm 20.6 21.2 16.8 79 2.3 N 9 13 5 7 1018.3 - 0.2
22/08:00pm 20.7 20.9 16.7 78 2.4 N 11 13 6 7 1018.3 - 0.2
22/07:30pm 21.3 21.4 16.5 74 2.9 N 11 15 6 8 1018.0 - 0.2
22/07:00pm 22.1 20.6 16.3 69 3.5 N 19 22 10 12 1017.9 - 0.2
22/06:30pm 22.4 21.7 16.5 69 3.6 N 15 17 8 9 1017.6 - 0.2
22/06:00pm 22.7 21.1 16.6 68 3.7 NNE 20 26 11 14 1017.2 1017.3 0.2
22/05:30pm 23.0 20.8 17.0 69 3.7 NNE 24 30 13 16 1017.0 - 0.2
22/05:00pm 23.5 21.7 17.0 67 4.0 NNE 22 32 12 17 1016.8 - 0.2
22/04:30pm 24.0 22.2 17.0 65 4.3 NNE 22 32 12 17 1016.7 - 0.2
22/04:00pm 24.2 22.0 17.8 67 4.0 NNE 26 35 14 19 1016.6 - 0.2
22/03:30pm 25.2 22.6 17.7 63 4.7 NNE 28 33 15 18 1016.6 - 0.2
22/03:00pm 25.9 23.6 17.6 60 5.2 NE 26 32 14 17 1016.4 1016.5 0.2
22/02:30pm 26.0 23.7 17.7 60 5.2 NE 26 33 14 18 1016.6 - 0.2
22/02:00pm 26.8 24.9 17.6 57 5.8 NNE 24 30 13 16 1016.7 - 0.2
22/01:30pm 26.3 23.8 17.1 57 5.7 NNE 26 33 14 18 1016.9 - 0.2
22/01:00pm 27.1 25.0 14.6 46 7.5 N 19 22 10 12 1017.5 - 0.2
22/12:30pm 27.9 25.3 15.0 45 7.8 N 22 28 12 15 1017.7 - 0.2
22/12:00pm 27.6 26.3 15.7 48 7.3 N 17 24 9 13 1018.1 1018.2 0.2
22/11:30am 27.3 26.0 14.9 46 7.5 N 15 19 8 10 1018.5 - 0.2
22/11:00am 27.0 25.8 16.1 51 6.7 NNW 17 28 9 15 1019.2 - 0.2
22/10:30am 26.3 24.7 14.0 46 7.3 NNW 15 20 8 11 1019.6 - 0.2
22/10:00am 25.7 24.6 16.4 56 5.7 N 17 26 9 14 1019.8 - 0.0
22/09:30am 24.7 24.5 15.8 57 5.4 N 11 17 6 9 1020.0 - 0.0
22/09:00am 23.3 23.8 16.6 66 4.1 N 9 11 5 6 1020.4 1020.5 0.0
22/08:30am 21.4 21.4 17.3 77 2.5 NW 13 17 7 9 1020.6 - 0.0
22/08:00am 20.3 20.5 17.7 85 1.6 NW 13 17 7 9 1020.5 - 0.0
22/07:30am 17.9 20.3 16.9 94 0.6 CALM 0 7 0 4 1020.4 - 0.0
22/07:00am 16.0 16.6 15.3 96 0.4 NNW 6 7 3 4 1020.4 - 0.0
22/06:30am 14.8 15.1 14.6 99 0.1 NW 6 7 3 4 1020.1 - 0.0
22/06:00am 15.0 15.3 14.5 97 0.3 NW 6 7 3 4 1020.1 1020.2 0.0
22/05:30am 14.7 16.0 14.2 97 0.3 CALM 0 6 0 3 1020.1 - 0.0
22/05:00am 14.6 14.6 14.1 97 0.3 NW 7 9 4 5 1019.7 - 0.0
22/04:30am 14.5 14.6 14.0 97 0.3 NW 6 6 3 3 1019.8 - 0.0
22/04:00am 14.9 15.0 14.4 97 0.3 WNW 7 9 4 5 1019.6 - 0.0
22/03:30am 14.8 15.0 14.3 97 0.3 WNW 6 7 3 4 1019.4 - 0.0
22/03:27am 14.9 15.2 14.4 97 0.3 W 6 7 3 4 1019.5 - 0.0
22/03:00am 14.9 15.0 14.4 97 0.3 W 7 9 4 5 1019.5 1019.6 0.0
22/02:41am 15.0 16.4 14.5 97 0.3 CALM 0 4 0 2 1019.5 - 0.0
22/02:30am 15.2 15.6 14.8 97 0.2 W 6 7 3 4 1019.6 - 0.0
22/02:00am 15.7 16.3 15.2 97 0.3 W 6 7 3 4 1019.6 - 0.0
22/01:30am 15.7 16.0 15.0 96 0.4 W 7 7 4 4 1019.7 - 0.0
22/01:00am 15.6 15.9 14.9 96 0.4 WSW 7 7 4 4 1019.8 - 0.0
22/12:30am 16.0 17.0 15.3 96 0.4 WSW 4 7 2 4 1019.8 - 0.0
22/12:00am 16.3 16.9 15.4 94 0.5 W 6 7 3 4 1019.8 1019.9 0.0
 
Date/Time
EST
Temp
°C
App
Temp
°C
Dew
Point
Rel
Hum
%
Delta-T
°C
Wind Press
QNH
hPa
Press
MSL
hPa
Rain
since 9 am
mm
Dir
 
Spd
km/h
Gust
km/h
Spd
kts
Gust
kts
21/11:30pm 16.5 17.1 15.8 96 0.4 W 7 9 4 5 1020.0 - 0.0
21/11:00pm 16.7 17.8 15.7 94 0.6 WNW 4 7 2 4 1020.2 - 0.0
21/10:30pm 16.7 17.6 16.0 96 0.4 WNW 6 7 3 4 1020.3 - 0.0
21/10:00pm 17.1 18.1 16.3 95 0.5 WNW 6 7 3 4 1020.5 - 0.0
21/09:30pm 17.4 18.8 16.4 94 0.6 NW 4 7 2 4 1020.5 - 0.0
21/09:00pm 17.7 19.6 16.7 94 0.6 SW 2 7 1 4 1020.3 1020.4 0.0
21/08:30pm 18.3 19.4 17.1 93 0.7 WNW 7 7 4 4 1020.1 - 0.0
21/08:00pm 18.1 20.5 16.9 93 0.7 CALM 0 0 0 0 1020.0 - 0.0
21/07:30pm 18.7 20.9 17.5 93 0.7 NE 2 7 1 4 1019.8 - 0.0
21/07:00pm 19.2 22.0 17.9 92 0.8 CALM 0 0 0 0 1019.5 - 0.0
21/06:30pm 19.7 22.6 18.2 91 0.9 CALM 0 0 0 0 1019.2 - 0.0
21/06:00pm 20.1 23.0 18.2 89 1.2 CALM 0 0 0 0 1018.9 1019.0 0.0
21/05:30pm 20.9 22.8 18.5 86 1.5 E 6 7 3 4 1018.6 - 0.0
21/05:00pm 21.9 24.5 18.5 81 2.1 E 2 7 1 4 1018.2 - 0.0
21/04:30pm 22.7 24.3 18.2 76 2.8 ENE 7 9 4 5 1018.0 - 0.0
21/04:00pm 23.6 24.7 18.0 71 3.5 E 9 13 5 7 1017.8 - 0.0
21/03:30pm 23.9 24.6 18.0 69 3.7 ENE 11 15 6 8 1017.6 - 0.0
21/03:00pm 24.0 24.6 17.6 67 4.0 E 11 15 6 8 1017.6 1017.7 0.0
21/02:30pm 23.8 23.9 16.4 63 4.5 ENE 11 19 6 10 1017.6 - 0.0
21/02:00pm 24.2 24.1 16.1 60 4.9 NNE 11 17 6 9 1017.7 - 0.0
21/01:30pm 24.3 24.0 16.4 61 4.8 E 13 19 7 10 1017.9 - 0.0
21/01:00pm 24.2 23.8 16.3 61 4.8 ESE 13 17 7 9 1018.3 - 0.0
21/12:30pm 23.8 23.2 14.7 56 5.4 SE 11 15 6 8 1018.5 - 0.0
21/12:00pm 23.7 21.8 11.8 47 6.7 ESE 13 17 7 9 1019.0 1019.1 0.0
21/11:30am 23.8 22.3 13.2 51 6.1 E 13 17 7 9 1019.5 - 0.0
21/11:00am 23.8 22.9 14.9 57 5.3 ESE 13 19 7 10 1019.7 - 0.0
21/10:30am 24.1 23.5 14.6 55 5.6 ESE 11 13 6 7 1019.9 - 0.0
21/10:00am 22.9 22.5 14.2 58 5.1 SSE 9 13 5 7 1020.0 - 0.0
21/09:30am 23.0 22.5 13.7 55 5.4 SSE 9 11 5 6 1020.2 - 0.0
21/09:00am 22.4 22.8 13.6 57 5.1 WSW 4 7 2 4 1020.3 1020.4 0.0
21/08:30am 21.2 21.4 14.7 66 3.8 NW 7 11 4 6 1020.2 - 0.0
21/08:00am 18.9 19.1 14.8 77 2.4 WNW 7 9 4 5 1020.0 - 0.0
21/07:30am 17.2 18.8 14.9 86 1.3 CALM 0 0 0 0 1019.7 - 0.0
21/07:00am 14.7 14.9 14.2 97 0.3 WNW 6 7 3 4 1019.4 - 0.0
21/06:30am 13.6 14.6 13.1 97 0.3 CALM 0 0 0 0 1019.0 - 0.0
21/06:00am 13.2 14.0 12.5 95 0.4 CALM 0 0 0 0 1018.6 1018.7 0.0
21/05:30am 13.8 14.4 13.1 96 0.4 W 2 9 1 5 1018.2 - 0.0
21/05:00am 13.9 13.6 13.2 96 0.4 WSW 7 9 4 5 1017.9 - 0.0
21/04:30am 14.2 15.3 13.5 96 0.4 CALM 0 0 0 0 1017.4 - 0.0
21/04:00am 14.7 15.8 13.6 93 0.6 CALM 0 2 0 1 1017.4 - 0.0
21/03:30am 15.2 15.4 14.1 93 0.6 W 6 9 3 5 1017.2 - 0.0
21/03:00am 16.1 15.6 14.9 93 0.7 NW 11 13 6 7 1017.2 1017.3 0.0
21/02:30am 16.7 17.0 15.0 90 1.0 NW 7 11 4 6 1017.3 - 0.0
21/02:00am 16.3 15.8 14.9 91 0.8 NW 11 15 6 8 1017.4 - 0.0
21/01:30am 16.9 16.6 15.4 91 0.9 NW 11 15 6 8 1017.4 - 0.0
21/01:00am 17.4 16.4 15.7 90 1.0 NNW 15 19 8 10 1017.5 - 0.0
21/12:30am 17.6 16.2 15.6 88 1.2 NNW 17 19 9 10 1017.3 - 0.0
21/12:00am 18.0 16.6 15.6 86 1.4 NNW 17 19 9 10 1017.6 1017.7 0.0
 
Date/Time
EST
Temp
°C
App
Temp
°C
Dew
Point
Rel
Hum
%
Delta-T
°C
Wind Press
QNH
hPa
Press
MSL
hPa
Rain
since 9 am
mm
Dir
 
Spd
km/h
Gust
km/h
Spd
kts
Gust
kts
20/11:30pm 17.7 16.4 15.7 88 1.2 NNW 17 19 9 10 1017.6 - 0.0
20/11:00pm 18.0 17.0 15.6 86 1.4 N 15 17 8 9 1017.6 - 0.0
20/10:30pm 18.8 17.0 15.6 82 1.9 NNW 19 22 10 12 1017.8 - 0.0
20/10:00pm 19.0 16.7 15.8 82 1.9 NNW 22 26 12 14 1017.8 - 0.0
20/09:30pm 18.8 17.1 15.8 83 1.8 NNW 19 26 10 14 1017.8 - 0.0
20/09:00pm 18.9 17.2 15.7 82 1.9 NNW 19 22 10 12 1017.7 1017.8 0.0
20/08:30pm 19.5 18.7 16.1 81 2.0 NNW 15 17 8 9 1017.6 - 0.0
20/08:00pm 20.6 19.8 16.1 75 2.7 NNW 15 24 8 13 1017.4 - 0.0
20/07:30pm 20.3 20.6 15.9 76 2.6 NNW 9 13 5 7 1017.1 - 0.0
20/07:00pm 20.8 21.1 15.9 73 2.9 NNW 9 13 5 7 1016.8 - 0.0
20/06:30pm 21.1 21.0 15.9 72 3.1 NNW 11 15 6 8 1016.5 - 0.0

Other Formats:

Comma delimited format used in spreadsheet applications
http://www.bom.gov.au/fwo/IDN60801/IDN60801.94791.axf

JavaScript Object Notation format (JSON) in row-major order
http://www.bom.gov.au/fwo/IDN60801/IDN60801.94791.json